createdAt,value
2022-11-12T00:04:53.886Z,101629.94
2022-11-12T00:11:16.951Z,101635.77
2022-11-12T00:17:40.261Z,101645.17
2022-11-12T00:24:02.992Z,101648.71
2022-11-12T00:30:26.166Z,101647.56
2022-11-12T00:36:49.365Z,101653.89
2022-11-12T00:43:12.118Z,101654.82
2022-11-12T00:49:34.817Z,101656.47
2022-11-12T00:55:57.722Z,101653.85
2022-11-12T01:02:20.293Z,101653.20
2022-11-12T01:08:42.917Z,101645.13
2022-11-12T01:15:06.259Z,101640.77
2022-11-12T01:21:29.116Z,101636.52
2022-11-12T01:27:51.557Z,101633.41
2022-11-12T01:34:14.662Z,101639.23
2022-11-12T01:40:37.655Z,101641.52
2022-11-12T01:47:00.541Z,101643.29
2022-11-12T01:53:26.194Z,101645.56
2022-11-12T01:59:49.015Z,101647.60
2022-11-12T02:06:11.827Z,101651.10
2022-11-12T02:12:34.580Z,101653.54
2022-11-12T02:18:57.656Z,101656.86
2022-11-12T02:25:20.525Z,101657.20
2022-11-12T02:31:43.548Z,101651.74
2022-11-12T02:38:06.472Z,101655.44
2022-11-12T02:44:29.779Z,101658.04
2022-11-12T02:50:46.128Z,101658.52
2022-11-12T02:57:08.789Z,101661.52
2022-11-12T03:03:31.636Z,101660.57
2022-11-12T03:09:54.326Z,101660.02
2022-11-12T03:16:17.029Z,101667.13
2022-11-12T03:22:39.887Z,101673.16
2022-11-12T03:29:02.746Z,101672.80
2022-11-12T03:35:25.332Z,101680.27
2022-11-12T03:41:48.083Z,101680.40
2022-11-12T03:48:10.982Z,101674.77
2022-11-12T03:54:33.731Z,101673.30
2022-11-12T04:00:56.676Z,101673.95
2022-11-12T04:07:17.765Z,101679.89
2022-11-12T04:13:49.468Z,101680.95
2022-11-12T04:20:10.516Z,101676.89
2022-11-12T04:26:45.557Z,101673.50
2022-11-12T04:33:08.622Z,101670.30
2022-11-12T04:39:31.520Z,101667.78
2022-11-12T04:45:54.252Z,101663.01
2022-11-12T04:52:26.593Z,101661.20
2022-11-12T04:58:49.582Z,101658.02
2022-11-12T05:05:12.462Z,101656.08
2022-11-12T05:11:35.420Z,101658.77
2022-11-12T05:17:58.172Z,101658.73
2022-11-12T05:24:40.553Z,101656.92
2022-11-12T05:31:03.518Z,101651.64
2022-11-12T05:37:26.581Z,101655.03
2022-11-12T05:43:49.469Z,101655.13
2022-11-12T05:50:12.440Z,101663.09
2022-11-12T05:56:35.513Z,101673.33
2022-11-12T06:02:58.636Z,101685.70
2022-11-12T06:09:21.620Z,101683.12
2022-11-12T06:15:39.416Z,101692.28
2022-11-12T06:22:02.631Z,101693.92
2022-11-12T06:28:26.036Z,101701.29
2022-11-12T06:34:49.121Z,101703.78
2022-11-12T06:41:12.160Z,101708.70
2022-11-12T06:47:34.856Z,101712.34
2022-11-12T06:54:00.707Z,101718.77
2022-11-12T07:00:23.699Z,101718.38
2022-11-12T07:06:46.876Z,101720.48
2022-11-12T07:13:09.945Z,101715.45
2022-11-12T07:19:25.671Z,101715.20
2022-11-12T07:25:48.335Z,101731.19
2022-11-12T07:32:11.022Z,101736.81
2022-11-12T07:38:33.771Z,101745.27
2022-11-12T07:44:56.662Z,101739.45
2022-11-12T07:51:19.452Z,101746.06
2022-11-12T07:57:42.302Z,101747.38
2022-11-12T08:04:04.931Z,101740.67
2022-11-12T08:10:27.535Z,101757.79
2022-11-12T08:16:50.225Z,101764.92
2022-11-12T08:23:12.786Z,101757.23
2022-11-12T08:29:35.658Z,101758.52
2022-11-12T08:35:58.249Z,101749.34
2022-11-12T08:42:21.006Z,101755.89
2022-11-12T08:48:42.727Z,101753.66
2022-11-12T08:55:05.548Z,101760.90
2022-11-12T09:01:28.134Z,101770.54
2022-11-12T09:07:51.423Z,101780.48
2022-11-12T09:14:14.407Z,101788.52
2022-11-12T09:20:37.161Z,101792.77
2022-11-12T09:26:59.815Z,101794.44
2022-11-12T09:33:22.897Z,101794.69
2022-11-12T09:39:45.376Z,101796.44
2022-11-12T09:46:27.604Z,101796.14
2022-11-12T09:52:51.293Z,101794.50
2022-11-12T09:59:14.087Z,101797.39
2022-11-12T10:05:58.405Z,101804.56
2022-11-12T10:12:26.217Z,101805.38
2022-11-12T10:18:49.567Z,101810.11
2022-11-12T10:25:12.215Z,101811.13
2022-11-12T10:31:35.049Z,101816.40
2022-11-12T10:38:03.945Z,101805.96
2022-11-12T10:44:29.921Z,101806.96
2022-11-12T10:50:58.881Z,101807.06
2022-11-12T10:57:21.736Z,101814.52
2022-11-12T11:03:56.734Z,101814.41
2022-11-12T11:10:19.578Z,101810.57
2022-11-12T11:16:42.471Z,101813.92
2022-11-12T11:23:22.748Z,101823.63
2022-11-12T11:29:51.895Z,101822.83
2022-11-12T11:36:39.367Z,101817.50
2022-11-12T11:43:14.266Z,101823.73
2022-11-12T11:49:40.096Z,101817.08
2022-11-12T11:56:03.072Z,101811.73
2022-11-12T12:02:29.328Z,101821.41
2022-11-12T12:08:58.195Z,101817.07
2022-11-12T12:15:21.151Z,101823.84
2022-11-12T12:21:50.127Z,101822.56
2022-11-12T12:28:27.250Z,101815.13
2022-11-12T12:34:56.196Z,101809.05
2022-11-12T12:41:18.341Z,101808.07
2022-11-12T12:47:44.220Z,101802.61
2022-11-12T12:54:09.800Z,101806.42
2022-11-12T13:00:33.506Z,101808.50
2022-11-12T13:07:10.992Z,101809.36
2022-11-12T13:13:43.283Z,101810.63
2022-11-12T13:20:08.966Z,101810.67
2022-11-12T13:26:31.705Z,101809.55
2022-11-12T13:32:51.592Z,101806.86
2022-11-12T13:39:14.178Z,101811.04
2022-11-12T13:45:36.823Z,101810.64
2022-11-12T13:51:52.211Z,101817.02
2022-11-12T13:58:15.111Z,101819.67
2022-11-12T14:04:46.839Z,101816.10
2022-11-12T14:11:17.186Z,101811.16
2022-11-12T14:17:49.260Z,101807.73
2022-11-12T14:24:18.314Z,101806.48
2022-11-12T14:30:56.938Z,101810.27
2022-11-12T14:37:20.108Z,101814.83
2022-11-12T14:43:43.073Z,101816.73
2022-11-12T14:50:21.578Z,101816.77
2022-11-12T14:56:45.002Z,101814.01
2022-11-12T15:03:10.926Z,101812.16
2022-11-12T15:09:36.736Z,101811.48
2022-11-12T15:16:05.410Z,101815.92
2022-11-12T15:22:37.223Z,101818.77
2022-11-12T15:29:12.524Z,101820.60
2022-11-12T15:35:41.534Z,101823.80
2022-11-12T15:42:04.455Z,101827.32
2022-11-12T15:48:27.371Z,101830.98
2022-11-12T15:54:50.159Z,101839.86
2022-11-12T16:01:16.134Z,101848.80
2022-11-12T16:07:38.959Z,101851.55
2022-11-12T16:13:57.577Z,101854.85
2022-11-12T16:20:13.470Z,101850.39
2022-11-12T16:26:36.314Z,101860.43
2022-11-12T16:32:58.990Z,101860.73
2022-11-12T16:39:21.673Z,101868.40
2022-11-12T16:45:44.366Z,101869.16
2022-11-12T16:52:07.238Z,101870.70
2022-11-12T16:58:29.782Z,101874.06
2022-11-12T17:04:52.756Z,101879.46
2022-11-12T17:11:15.531Z,101884.08
2022-11-12T17:17:38.754Z,101878.47
2022-11-12T17:24:01.510Z,101880.73
2022-11-12T17:30:24.438Z,101883.89
2022-11-12T17:36:47.163Z,101879.36
2022-11-12T17:43:10.155Z,101885.84
2022-11-12T17:49:24.000Z,101872.73
2022-11-12T17:55:46.793Z,101878.48
2022-11-12T18:02:09.666Z,101874.33
2022-11-12T18:08:32.520Z,101874.65
2022-11-12T18:14:55.929Z,101876.89
2022-11-12T18:21:18.696Z,101878.31
2022-11-12T18:27:41.486Z,101875.55
2022-11-12T18:34:04.428Z,101869.02
2022-11-12T18:40:27.418Z,101868.84
2022-11-12T18:46:56.271Z,101868.20
2022-11-12T18:53:19.226Z,101872.45
2022-11-12T18:59:35.570Z,101871.14
2022-11-12T19:05:58.642Z,101876.08
2022-11-12T19:12:21.526Z,101876.18
2022-11-12T19:18:44.266Z,101881.32
2022-11-12T19:25:06.845Z,101880.86
2022-11-12T19:31:29.641Z,101878.33
2022-11-12T19:37:52.180Z,101874.49
2022-11-12T19:44:15.318Z,101883.52
2022-11-12T19:50:37.929Z,101880.00
2022-11-12T19:56:43.543Z,101873.02
2022-11-12T20:03:06.136Z,101879.09
2022-11-12T20:09:29.156Z,101883.44
2022-11-12T20:15:51.727Z,101877.25
2022-11-12T20:22:14.823Z,101882.45
2022-11-12T20:28:37.340Z,101886.10
2022-11-12T20:34:59.954Z,101893.17
2022-11-12T20:41:22.500Z,101896.25
2022-11-12T20:47:45.098Z,101897.68
2022-11-12T20:54:08.105Z,101901.46
2022-11-12T21:00:31.169Z,101902.09
2022-11-12T21:07:05.107Z,101898.83
2022-11-12T21:13:28.207Z,101899.75
2022-11-12T21:19:50.880Z,101894.25
2022-11-12T21:26:16.503Z,101898.39
2022-11-12T21:32:37.979Z,101895.91
2022-11-12T21:39:00.829Z,101904.10
2022-11-12T21:45:23.608Z,101906.45
2022-11-12T21:51:38.066Z,101905.04
2022-11-12T21:58:00.946Z,101904.83
2022-11-12T22:04:23.943Z,101903.39
2022-11-12T22:10:46.801Z,101902.83
2022-11-12T22:17:09.583Z,101895.54
2022-11-12T22:23:32.355Z,101897.63
2022-11-12T22:29:55.419Z,101895.74
2022-11-12T22:36:18.136Z,101890.71
2022-11-12T22:42:40.891Z,101881.73
2022-11-12T22:49:03.748Z,101887.61
2022-11-12T22:55:26.212Z,101889.23
2022-11-12T23:01:49.124Z,101892.09
2022-11-12T23:08:12.275Z,101887.22
2022-11-12T23:14:35.156Z,101885.32
2022-11-12T23:20:57.549Z,101888.00
2022-11-12T23:27:20.088Z,101890.77
2022-11-12T23:33:43.104Z,101890.77
2022-11-12T23:40:05.940Z,101886.77
2022-11-12T23:46:28.517Z,101881.30
2022-11-12T23:52:51.427Z,101879.30
2022-11-12T23:59:14.278Z,101880.14
